»·PEaware :: WAT540 KSMO-KAPV

WAT540 :: KSMO-KAPV

FLIGHT INFORMATION

Flight Status: Arrived
Operator:
Walker Air Transport
More flights by this operator :: More flights under this callsign
Pilot: Michael R. (33632)
Aircraft: GRUMMAN AERO AA5 CHEETAH TIGER
(AA5)
More flights by this aircraft type
Origin: KSMO Santa Monica Mun
United States
Destination: KAPV Apple Valley
United States
More flights between these airports :: More routes between these airports
Route:
File this flight plan on PilotEdge
Remarks: Route 66 Leg 1
Altitude:
(Current/Filed)
7,500ft
Speed:
(Current/Filed)
130kts
Departed: 14-Feb-21 04:18 AM
Arrived: 14-Feb-21 04:59 AM
Distance/Time
Traveled:
71nm/0:41
Distance/Time
To Go:
Arrived

Flight Plot

Page will automatically refresh every two minutes.

Flight plan parsing failed; only flown route is shown


Map Options




Map Legend


Flown Route
Filed Route
Departure Airport
Arrival Airport
Navaid (VOR, NDB)
Fix

Horizontal Profiles

Position Reports

Time Latitude Longitude Heading Altitude Ground
Speed
14-Feb-21 03:54 34.013753 -118.455322 133 127ft 0kts
14-Feb-21 03:55 34.013753 -118.455322 133 127ft 0kts
14-Feb-21 03:56 34.013753 -118.455322 133 127ft 0kts
14-Feb-21 03:57 34.013753 -118.455322 133 127ft 0kts
14-Feb-21 03:58 34.013753 -118.455322 133 127ft 0kts
14-Feb-21 03:59 34.013753 -118.455322 133 127ft 0kts
14-Feb-21 04:00 34.013753 -118.455322 133 127ft 0kts
14-Feb-21 04:02 34.013753 -118.455322 133 127ft 0kts
14-Feb-21 04:03 34.013753 -118.455322 133 127ft 0kts
14-Feb-21 04:04 34.013753 -118.455322 133 127ft 0kts
14-Feb-21 04:05 34.013753 -118.455322 133 127ft 0kts
14-Feb-21 04:06 34.013753 -118.455322 133 127ft 0kts
14-Feb-21 04:07 34.013753 -118.455322 133 127ft 0kts
14-Feb-21 04:08 34.013753 -118.455322 133 127ft 0kts
14-Feb-21 04:09 34.013753 -118.455322 133 127ft 0kts
14-Feb-21 04:10 34.013753 -118.455322 133 127ft 0kts
14-Feb-21 04:11 34.013753 -118.455322 133 127ft 0kts
14-Feb-21 04:12 34.013753 -118.455322 133 127ft 0kts
14-Feb-21 04:13 34.013753 -118.455322 133 127ft 0kts
14-Feb-21 04:14 34.013753 -118.455322 133 127ft 0kts
14-Feb-21 04:15 34.013753 -118.455322 133 127ft 0kts
14-Feb-21 04:16 34.013533 -118.455205 198 127ft 7kts
14-Feb-21 04:16 34.012890 -118.455652 132 123ft 0kts
14-Feb-21 04:18 34.018294 -118.447487 47 348ft 72kts
14-Feb-21 04:19 34.032238 -118.429193 39 1209ft 75kts
14-Feb-21 04:19 34.044837 -118.413316 40 1857ft 86kts
14-Feb-21 04:20 34.063435 -118.389245 41 2422ft 105kts
14-Feb-21 04:21 34.085518 -118.359534 58 2489ft 134kts
14-Feb-21 04:23 34.099318 -118.307478 69 2490ft 141kts
14-Feb-21 04:23 34.108521 -118.269732 69 2489ft 140kts
14-Feb-21 04:24 34.119013 -118.224704 69 2490ft 137kts
14-Feb-21 04:25 34.126111 -118.180207 98 2494ft 141kts
14-Feb-21 04:26 34.114170 -118.136247 104 2983ft 133kts
14-Feb-21 04:27 34.102331 -118.096638 104 3657ft 119kts
14-Feb-21 04:28 34.091237 -118.059603 104 4280ft 115kts
14-Feb-21 04:29 34.080356 -118.023344 103 4861ft 115kts
14-Feb-21 04:30 34.075499 -117.986739 83 5409ft 111kts
14-Feb-21 04:31 34.076361 -117.949201 81 5948ft 111kts
14-Feb-21 04:32 34.077367 -117.911835 80 6462ft 111kts
14-Feb-21 04:33 34.078369 -117.874275 80 6956ft 112kts
14-Feb-21 04:34 34.079377 -117.835707 80 7342ft 119kts
14-Feb-21 04:35 34.080529 -117.792558 80 7504ft 128kts
14-Feb-21 04:36 34.081723 -117.747104 80 7507ft 132kts
14-Feb-21 04:37 34.086376 -117.702618 68 7510ft 131kts
14-Feb-21 04:38 34.096170 -117.657801 67 7512ft 132kts
14-Feb-21 04:39 34.105888 -117.614015 67 7514ft 133kts
14-Feb-21 04:40 34.115583 -117.570377 67 7514ft 134kts
14-Feb-21 04:41 34.135066 -117.536914 21 7512ft 121kts
14-Feb-21 04:42 34.166766 -117.519668 19 7509ft 120kts
14-Feb-21 04:43 34.197685 -117.503708 19 7506ft 119kts
14-Feb-21 04:44 34.230069 -117.487590 18 7504ft 119kts
14-Feb-21 04:45 34.262162 -117.471688 18 7504ft 118kts
14-Feb-21 04:46 34.295802 -117.455020 18 7486ft 120kts
14-Feb-21 04:47 34.330200 -117.437977 18 7080ft 133kts
14-Feb-21 04:48 34.361784 -117.410997 35 6717ft 137kts
14-Feb-21 04:49 34.392889 -117.378538 33 6356ft 135kts
14-Feb-21 04:50 34.421299 -117.348832 34 6038ft 139kts
14-Feb-21 04:51 34.451828 -117.316834 34 5731ft 141kts
14-Feb-21 04:52 34.479126 -117.278498 47 5398ft 136kts
14-Feb-21 04:53 34.496696 -117.242184 52 5129ft 92kts
14-Feb-21 04:54 34.508614 -117.216882 35 5017ft 80kts
14-Feb-21 04:55 34.526438 -117.202035 7 4535ft 71kts
14-Feb-21 04:56 34.545761 -117.196308 5 3940ft 71kts
14-Feb-21 04:57 34.566004 -117.190002 6 3251ft 75kts
14-Feb-21 04:58 34.578649 -117.186139 340 3064ft 0kts
14-Feb-21 04:59 34.579194 -117.186677 277 3064ft 5kts
14-Feb-21 05:00 34.575481 -117.188145 199 3064ft 23kts
14-Feb-21 05:01 34.573627 -117.190086 194 3064ft 4kts
14-Feb-21 05:02 34.573614 -117.190088 179 3064ft 0kts
14-Feb-21 05:03 34.573614 -117.190088 179 3064ft 0kts

Navigation Log

Ident Type
Flight plan parsing failed, navigation log unavailable